sensor_id;sensor_type;location;lat;lon;timestamp;P1;durP1;ratioP1;P2;durP2;ratioP2
70667;SDS011;58242;51.250;-1.118;2023-03-09T00:02:03;7.63;;;6.93;;
70667;SDS011;58242;51.250;-1.118;2023-03-09T00:04:30;7.22;;;6.45;;
70667;SDS011;58242;51.250;-1.118;2023-03-09T00:06:56;8.10;;;6.45;;
70667;SDS011;58242;51.250;-1.118;2023-03-09T00:09:21;9.20;;;7.25;;
70667;SDS011;58242;51.250;-1.118;2023-03-09T00:11:47;9.40;;;8.02;;
70667;SDS011;58242;51.250;-1.118;2023-03-09T00:14:13;9.63;;;8.20;;
70667;SDS011;58242;51.250;-1.118;2023-03-09T00:16:40;8.73;;;7.75;;
70667;SDS011;58242;51.250;-1.118;2023-03-09T00:19:06;8.70;;;7.45;;
70667;SDS011;58242;51.250;-1.118;2023-03-09T00:21:32;7.10;;;6.40;;
70667;SDS011;58242;51.250;-1.118;2023-03-09T00:26:34;6.90;;;6.18;;
70667;SDS011;58242;51.250;-1.118;2023-03-09T00:29:01;7.03;;;6.25;;
70667;SDS011;58242;51.250;-1.118;2023-03-09T00:31:27;8.05;;;7.25;;
70667;SDS011;58242;51.250;-1.118;2023-03-09T00:33:53;5.80;;;5.20;;
70667;SDS011;58242;51.250;-1.118;2023-03-09T00:36:18;7.53;;;6.20;;
70667;SDS011;58242;51.250;-1.118;2023-03-09T00:38:43;6.60;;;5.85;;
70667;SDS011;58242;51.250;-1.118;2023-03-09T00:41:14;6.70;;;6.00;;
70667;SDS011;58242;51.250;-1.118;2023-03-09T00:43:40;6.75;;;6.13;;
70667;SDS011;58242;51.250;-1.118;2023-03-09T00:46:05;7.15;;;6.43;;
70667;SDS011;58242;51.250;-1.118;2023-03-09T00:48:30;9.02;;;7.25;;
70667;SDS011;58242;51.250;-1.118;2023-03-09T00:50:56;8.32;;;6.80;;
70667;SDS011;58242;51.250;-1.118;2023-03-09T00:53:21;8.07;;;6.85;;
70667;SDS011;58242;51.250;-1.118;2023-03-09T00:55:46;7.78;;;6.05;;
70667;SDS011;58242;51.250;-1.118;2023-03-09T00:58:12;6.72;;;6.03;;
70667;SDS011;58242;51.250;-1.118;2023-03-09T01:00:37;7.20;;;6.07;;
70667;SDS011;58242;51.250;-1.118;2023-03-09T01:03:03;8.20;;;6.10;;
70667;SDS011;58242;51.250;-1.118;2023-03-09T01:05:28;6.05;;;4.97;;
70667;SDS011;58242;51.250;-1.118;2023-03-09T01:07:53;7.25;;;6.13;;
70667;SDS011;58242;51.250;-1.118;2023-03-09T01:10:19;8.95;;;6.78;;
70667;SDS011;58242;51.250;-1.118;2023-03-09T01:12:44;6.60;;;6.00;;
70667;SDS011;58242;51.250;-1.118;2023-03-09T01:15:10;5.20;;;4.63;;
70667;SDS011;58242;51.250;-1.118;2023-03-09T01:17:37;5.97;;;5.35;;
70667;SDS011;58242;51.250;-1.118;2023-03-09T01:20:03;5.80;;;5.30;;
70667;SDS011;58242;51.250;-1.118;2023-03-09T01:22:29;7.18;;;6.15;;
70667;SDS011;58242;51.250;-1.118;2023-03-09T01:24:54;5.88;;;5.30;;
70667;SDS011;58242;51.250;-1.118;2023-03-09T01:27:20;5.45;;;4.75;;
70667;SDS011;58242;51.250;-1.118;2023-03-09T01:29:45;5.60;;;5.10;;
70667;SDS011;58242;51.250;-1.118;2023-03-09T01:32:10;6.22;;;5.63;;
70667;SDS011;58242;51.250;-1.118;2023-03-09T01:34:36;5.15;;;4.50;;
70667;SDS011;58242;51.250;-1.118;2023-03-09T01:37:01;4.95;;;4.55;;
70667;SDS011;58242;51.250;-1.118;2023-03-09T01:39:26;4.70;;;4.30;;
70667;SDS011;58242;51.250;-1.118;2023-03-09T01:41:51;4.32;;;3.90;;
70667;SDS011;58242;51.250;-1.118;2023-03-09T01:44:17;4.65;;;4.22;;
70667;SDS011;58242;51.250;-1.118;2023-03-09T01:46:49;7.15;;;5.63;;
70667;SDS011;58242;51.250;-1.118;2023-03-09T01:54:47;9.82;;;6.88;;
70667;SDS011;58242;51.250;-1.118;2023-03-09T01:57:23;8.32;;;6.18;;
70667;SDS011;58242;51.250;-1.118;2023-03-09T02:02:39;8.27;;;6.82;;
70667;SDS011;58242;51.250;-1.118;2023-03-09T02:05:06;6.75;;;5.38;;
70667;SDS011;58242;51.250;-1.118;2023-03-09T02:07:36;5.38;;;4.35;;
70667;SDS011;58242;51.250;-1.118;2023-03-09T02:10:05;6.53;;;4.88;;
70667;SDS011;58242;51.250;-1.118;2023-03-09T02:12:37;4.47;;;4.07;;
70667;SDS011;58242;51.250;-1.118;2023-03-09T02:15:04;5.28;;;4.78;;
70667;SDS011;58242;51.250;-1.118;2023-03-09T02:17:30;4.47;;;4.07;;
70667;SDS011;58242;51.250;-1.118;2023-03-09T02:19:59;4.20;;;3.80;;
70667;SDS011;58242;51.250;-1.118;2023-03-09T02:22:32;3.88;;;3.58;;
70667;SDS011;58242;51.250;-1.118;2023-03-09T02:25:11;4.47;;;4.07;;
70667;SDS011;58242;51.250;-1.118;2023-03-09T02:27:40;4.22;;;3.83;;
70667;SDS011;58242;51.250;-1.118;2023-03-09T02:30:06;4.15;;;3.75;;
70667;SDS011;58242;51.250;-1.118;2023-03-09T02:32:33;3.85;;;3.55;;
70667;SDS011;58242;51.250;-1.118;2023-03-09T02:34:58;3.63;;;3.33;;
70667;SDS011;58242;51.250;-1.118;2023-03-09T02:37:25;4.55;;;4.15;;
70667;SDS011;58242;51.250;-1.118;2023-03-09T02:39:59;4.20;;;3.80;;
70667;SDS011;58242;51.250;-1.118;2023-03-09T02:42:26;4.82;;;4.35;;
70667;SDS011;58242;51.250;-1.118;2023-03-09T02:44:52;4.50;;;4.10;;
70667;SDS011;58242;51.250;-1.118;2023-03-09T02:47:19;3.90;;;3.60;;
70667;SDS011;58242;51.250;-1.118;2023-03-09T02:49:46;4.05;;;3.75;;
70667;SDS011;58242;51.250;-1.118;2023-03-09T02:52:12;3.67;;;3.38;;
70667;SDS011;58242;51.250;-1.118;2023-03-09T02:54:37;4.03;;;3.70;;
70667;SDS011;58242;51.250;-1.118;2023-03-09T02:57:03;4.13;;;3.83;;
70667;SDS011;58242;51.250;-1.118;2023-03-09T02:59:29;5.25;;;4.75;;
70667;SDS011;58242;51.250;-1.118;2023-03-09T03:01:54;5.43;;;4.93;;
70667;SDS011;58242;51.250;-1.118;2023-03-09T03:04:20;4.90;;;4.45;;
70667;SDS011;58242;51.250;-1.118;2023-03-09T03:06:45;4.07;;;3.67;;
70667;SDS011;58242;51.250;-1.118;2023-03-09T03:09:10;3.50;;;3.20;;
70667;SDS011;58242;51.250;-1.118;2023-03-09T03:11:36;4.68;;;4.13;;
70667;SDS011;58242;51.250;-1.118;2023-03-09T03:14:01;4.57;;;4.18;;
70667;SDS011;58242;51.250;-1.118;2023-03-09T03:16:26;4.13;;;3.83;;
70667;SDS011;58242;51.250;-1.118;2023-03-09T03:18:52;4.93;;;3.88;;
70667;SDS011;58242;51.250;-1.118;2023-03-09T03:21:17;4.78;;;4.28;;
70667;SDS011;58242;51.250;-1.118;2023-03-09T03:23:42;4.38;;;3.97;;
70667;SDS011;58242;51.250;-1.118;2023-03-09T03:26:08;5.07;;;4.57;;
70667;SDS011;58242;51.250;-1.118;2023-03-09T03:28:35;5.90;;;5.30;;
70667;SDS011;58242;51.250;-1.118;2023-03-09T03:31:01;6.65;;;5.80;;
70667;SDS011;58242;51.250;-1.118;2023-03-09T03:33:26;6.13;;;5.50;;
70667;SDS011;58242;51.250;-1.118;2023-03-09T03:35:52;7.38;;;5.53;;
70667;SDS011;58242;51.250;-1.118;2023-03-09T03:38:17;4.55;;;4.15;;
70667;SDS011;58242;51.250;-1.118;2023-03-09T03:40:42;5.68;;;5.15;;
70667;SDS011;58242;51.250;-1.118;2023-03-09T03:43:08;5.50;;;4.93;;
70667;SDS011;58242;51.250;-1.118;2023-03-09T03:45:33;4.28;;;3.88;;
70667;SDS011;58242;51.250;-1.118;2023-03-09T03:47:58;5.72;;;5.20;;
70667;SDS011;58242;51.250;-1.118;2023-03-09T03:50:24;6.43;;;5.47;;
70667;SDS011;58242;51.250;-1.118;2023-03-09T03:52:49;7.20;;;5.60;;
70667;SDS011;58242;51.250;-1.118;2023-03-09T03:55:14;6.22;;;5.55;;
70667;SDS011;58242;51.250;-1.118;2023-03-09T03:57:40;5.53;;;4.93;;
70667;SDS011;58242;51.250;-1.118;2023-03-09T04:00:05;5.80;;;5.20;;
70667;SDS011;58242;51.250;-1.118;2023-03-09T04:02:40;5.80;;;4.80;;
70667;SDS011;58242;51.250;-1.118;2023-03-09T04:05:06;7.68;;;6.13;;
70667;SDS011;58242;51.250;-1.118;2023-03-09T04:07:32;7.07;;;6.38;;
70667;SDS011;58242;51.250;-1.118;2023-03-09T04:09:57;7.38;;;6.40;;
70667;SDS011;58242;51.250;-1.118;2023-03-09T04:12:23;6.15;;;5.55;;
70667;SDS011;58242;51.250;-1.118;2023-03-09T04:14:48;7.88;;;6.70;;
70667;SDS011;58242;51.250;-1.118;2023-03-09T04:17:13;7.40;;;5.90;;
70667;SDS011;58242;51.250;-1.118;2023-03-09T04:19:39;7.90;;;6.70;;
70667;SDS011;58242;51.250;-1.118;2023-03-09T04:22:04;7.45;;;6.35;;
70667;SDS011;58242;51.250;-1.118;2023-03-09T04:24:30;8.63;;;6.38;;
70667;SDS011;58242;51.250;-1.118;2023-03-09T04:26:55;5.25;;;4.75;;
70667;SDS011;58242;51.250;-1.118;2023-03-09T04:29:20;5.45;;;4.93;;
70667;SDS011;58242;51.250;-1.118;2023-03-09T04:31:46;6.07;;;5.47;;
70667;SDS011;58242;51.250;-1.118;2023-03-09T04:34:11;6.15;;;4.93;;
70667;SDS011;58242;51.250;-1.118;2023-03-09T04:36:37;6.63;;;5.60;;
70667;SDS011;58242;51.250;-1.118;2023-03-09T04:39:03;6.78;;;5.38;;
70667;SDS011;58242;51.250;-1.118;2023-03-09T04:41:32;6.35;;;5.70;;
70667;SDS011;58242;51.250;-1.118;2023-03-09T04:43:57;6.13;;;5.45;;
70667;SDS011;58242;51.250;-1.118;2023-03-09T04:46:23;6.47;;;5.55;;
70667;SDS011;58242;51.250;-1.118;2023-03-09T04:48:48;7.38;;;5.15;;
70667;SDS011;58242;51.250;-1.118;2023-03-09T04:51:13;5.20;;;4.68;;
70667;SDS011;58242;51.250;-1.118;2023-03-09T04:53:38;6.47;;;5.68;;
70667;SDS011;58242;51.250;-1.118;2023-03-09T04:56:04;4.78;;;4.20;;
70667;SDS011;58242;51.250;-1.118;2023-03-09T04:58:30;6.60;;;5.47;;
70667;SDS011;58242;51.250;-1.118;2023-03-09T05:00:55;4.40;;;4.00;;
70667;SDS011;58242;51.250;-1.118;2023-03-09T05:03:20;5.00;;;4.05;;
70667;SDS011;58242;51.250;-1.118;2023-03-09T05:05:46;5.38;;;4.22;;
70667;SDS011;58242;51.250;-1.118;2023-03-09T05:08:11;4.97;;;4.47;;
70667;SDS011;58242;51.250;-1.118;2023-03-09T05:10:37;5.15;;;4.65;;
70667;SDS011;58242;51.250;-1.118;2023-03-09T05:13:02;5.40;;;4.60;;
70667;SDS011;58242;51.250;-1.118;2023-03-09T05:15:27;5.65;;;4.97;;
70667;SDS011;58242;51.250;-1.118;2023-03-09T05:17:53;4.45;;;3.92;;
70667;SDS011;58242;51.250;-1.118;2023-03-09T05:20:18;5.85;;;5.28;;
70667;SDS011;58242;51.250;-1.118;2023-03-09T05:22:43;6.25;;;5.20;;
70667;SDS011;58242;51.250;-1.118;2023-03-09T05:25:09;5.95;;;5.13;;
70667;SDS011;58242;51.250;-1.118;2023-03-09T05:27:34;6.65;;;5.45;;
70667;SDS011;58242;51.250;-1.118;2023-03-09T05:30:00;8.50;;;6.82;;
70667;SDS011;58242;51.250;-1.118;2023-03-09T05:32:25;7.97;;;6.55;;
70667;SDS011;58242;51.250;-1.118;2023-03-09T05:34:51;7.50;;;6.63;;
70667;SDS011;58242;51.250;-1.118;2023-03-09T05:37:16;7.72;;;6.40;;
70667;SDS011;58242;51.250;-1.118;2023-03-09T05:39:41;5.97;;;5.15;;
70667;SDS011;58242;51.250;-1.118;2023-03-09T05:42:06;7.47;;;6.15;;
70667;SDS011;58242;51.250;-1.118;2023-03-09T05:44:32;5.90;;;5.28;;
70667;SDS011;58242;51.250;-1.118;2023-03-09T05:46:57;5.65;;;4.97;;
70667;SDS011;58242;51.250;-1.118;2023-03-09T05:49:23;6.60;;;4.93;;
70667;SDS011;58242;51.250;-1.118;2023-03-09T05:51:52;5.65;;;5.10;;
70667;SDS011;58242;51.250;-1.118;2023-03-09T05:54:18;5.65;;;5.07;;
70667;SDS011;58242;51.250;-1.118;2023-03-09T05:56:43;7.57;;;6.43;;
70667;SDS011;58242;51.250;-1.118;2023-03-09T05:59:08;6.75;;;5.93;;
70667;SDS011;58242;51.250;-1.118;2023-03-09T06:01:34;7.72;;;6.50;;
70667;SDS011;58242;51.250;-1.118;2023-03-09T06:03:59;5.95;;;5.13;;
70667;SDS011;58242;51.250;-1.118;2023-03-09T06:06:24;4.72;;;4.28;;
70667;SDS011;58242;51.250;-1.118;2023-03-09T06:08:50;6.50;;;5.40;;
70667;SDS011;58242;51.250;-1.118;2023-03-09T06:11:15;5.13;;;4.63;;
70667;SDS011;58242;51.250;-1.118;2023-03-09T06:13:41;6.50;;;5.13;;
70667;SDS011;58242;51.250;-1.118;2023-03-09T06:16:08;7.22;;;5.70;;
70667;SDS011;58242;51.250;-1.118;2023-03-09T06:18:37;5.00;;;4.50;;
70667;SDS011;58242;51.250;-1.118;2023-03-09T06:21:03;5.93;;;5.05;;
70667;SDS011;58242;51.250;-1.118;2023-03-09T06:23:30;7.13;;;5.57;;
70667;SDS011;58242;51.250;-1.118;2023-03-09T06:25:56;7.97;;;5.53;;
70667;SDS011;58242;51.250;-1.118;2023-03-09T06:28:22;7.50;;;5.72;;
70667;SDS011;58242;51.250;-1.118;2023-03-09T06:30:48;9.48;;;7.25;;
70667;SDS011;58242;51.250;-1.118;2023-03-09T06:33:14;7.40;;;6.25;;
70667;SDS011;58242;51.250;-1.118;2023-03-09T06:35:39;7.25;;;6.05;;
70667;SDS011;58242;51.250;-1.118;2023-03-09T06:38:06;8.13;;;5.95;;
70667;SDS011;58242;51.250;-1.118;2023-03-09T06:40:31;7.15;;;5.80;;
70667;SDS011;58242;51.250;-1.118;2023-03-09T06:42:57;7.68;;;6.10;;
70667;SDS011;58242;51.250;-1.118;2023-03-09T06:45:22;7.03;;;5.78;;
70667;SDS011;58242;51.250;-1.118;2023-03-09T06:47:48;6.70;;;4.95;;
70667;SDS011;58242;51.250;-1.118;2023-03-09T06:50:13;6.15;;;4.95;;
70667;SDS011;58242;51.250;-1.118;2023-03-09T06:52:39;4.70;;;3.78;;
70667;SDS011;58242;51.250;-1.118;2023-03-09T06:55:05;4.15;;;3.75;;
70667;SDS011;58242;51.250;-1.118;2023-03-09T06:57:31;5.22;;;4.20;;
70667;SDS011;58242;51.250;-1.118;2023-03-09T06:59:56;4.63;;;4.15;;
70667;SDS011;58242;51.250;-1.118;2023-03-09T07:02:21;4.55;;;4.15;;
70667;SDS011;58242;51.250;-1.118;2023-03-09T07:04:47;5.28;;;4.30;;
70667;SDS011;58242;51.250;-1.118;2023-03-09T07:07:12;4.25;;;3.70;;
70667;SDS011;58242;51.250;-1.118;2023-03-09T07:09:38;4.53;;;4.00;;
70667;SDS011;58242;51.250;-1.118;2023-03-09T07:12:03;4.68;;;3.97;;
70667;SDS011;58242;51.250;-1.118;2023-03-09T07:14:29;5.28;;;4.28;;
70667;SDS011;58242;51.250;-1.118;2023-03-09T07:16:54;4.35;;;3.95;;
70667;SDS011;58242;51.250;-1.118;2023-03-09T07:19:21;4.30;;;3.90;;
70667;SDS011;58242;51.250;-1.118;2023-03-09T07:21:47;3.05;;;2.83;;
70667;SDS011;58242;51.250;-1.118;2023-03-09T07:24:13;4.00;;;3.60;;
70667;SDS011;58242;51.250;-1.118;2023-03-09T07:26:39;4.20;;;3.80;;
70667;SDS011;58242;51.250;-1.118;2023-03-09T07:29:04;4.38;;;3.97;;
70667;SDS011;58242;51.250;-1.118;2023-03-09T07:31:29;3.65;;;3.35;;
70667;SDS011;58242;51.250;-1.118;2023-03-09T07:33:55;3.50;;;3.20;;
70667;SDS011;58242;51.250;-1.118;2023-03-09T07:36:21;3.30;;;3.00;;
70667;SDS011;58242;51.250;-1.118;2023-03-09T07:38:46;4.20;;;3.45;;
70667;SDS011;58242;51.250;-1.118;2023-03-09T07:41:12;4.13;;;3.65;;
70667;SDS011;58242;51.250;-1.118;2023-03-09T07:43:38;3.90;;;3.20;;
70667;SDS011;58242;51.250;-1.118;2023-03-09T07:46:08;3.22;;;3.00;;
70667;SDS011;58242;51.250;-1.118;2023-03-09T07:48:41;5.32;;;3.42;;
70667;SDS011;58242;51.250;-1.118;2023-03-09T07:51:07;3.00;;;2.72;;
70667;SDS011;58242;51.250;-1.118;2023-03-09T07:53:33;2.92;;;2.63;;
70667;SDS011;58242;51.250;-1.118;2023-03-09T07:56:00;2.97;;;2.63;;
70667;SDS011;58242;51.250;-1.118;2023-03-09T07:58:32;2.40;;;2.25;;
70667;SDS011;58242;51.250;-1.118;2023-03-09T08:00:58;2.47;;;2.28;;
70667;SDS011;58242;51.250;-1.118;2023-03-09T08:03:25;2.85;;;2.53;;
70667;SDS011;58242;51.250;-1.118;2023-03-09T08:05:50;3.40;;;3.10;;
70667;SDS011;58242;51.250;-1.118;2023-03-09T08:08:20;2.85;;;2.65;;
70667;SDS011;58242;51.250;-1.118;2023-03-09T08:10:49;2.80;;;2.45;;
70667;SDS011;58242;51.250;-1.118;2023-03-09T08:13:15;2.30;;;2.10;;
70667;SDS011;58242;51.250;-1.118;2023-03-09T08:15:41;2.20;;;2.03;;
70667;SDS011;58242;51.250;-1.118;2023-03-09T08:18:07;2.20;;;2.00;;
70667;SDS011;58242;51.250;-1.118;2023-03-09T08:20:32;2.00;;;1.90;;
70667;SDS011;58242;51.250;-1.118;2023-03-09T08:22:58;2.75;;;2.53;;
70667;SDS011;58242;51.250;-1.118;2023-03-09T08:25:24;3.03;;;2.72;;
70667;SDS011;58242;51.250;-1.118;2023-03-09T08:27:49;3.40;;;3.10;;
70667;SDS011;58242;51.250;-1.118;2023-03-09T08:30:15;3.03;;;2.80;;
70667;SDS011;58242;51.250;-1.118;2023-03-09T08:32:42;3.60;;;2.90;;
70667;SDS011;58242;51.250;-1.118;2023-03-09T08:35:11;3.10;;;2.80;;
70667;SDS011;58242;51.250;-1.118;2023-03-09T08:37:36;2.85;;;2.65;;
70667;SDS011;58242;51.250;-1.118;2023-03-09T08:40:02;3.65;;;3.13;;
70667;SDS011;58242;51.250;-1.118;2023-03-09T08:42:27;3.38;;;3.00;;
70667;SDS011;58242;51.250;-1.118;2023-03-09T08:44:53;3.53;;;3.22;;
70667;SDS011;58242;51.250;-1.118;2023-03-09T08:47:18;3.25;;;2.90;;
70667;SDS011;58242;51.250;-1.118;2023-03-09T08:49:43;2.42;;;2.22;;
70667;SDS011;58242;51.250;-1.118;2023-03-09T08:52:11;2.60;;;2.40;;
70667;SDS011;58242;51.250;-1.118;2023-03-09T08:54:38;4.18;;;2.17;;
70667;SDS011;58242;51.250;-1.118;2023-03-09T08:57:03;2.55;;;2.35;;
70667;SDS011;58242;51.250;-1.118;2023-03-09T08:59:28;2.28;;;2.08;;
70667;SDS011;58242;51.250;-1.118;2023-03-09T09:01:55;2.78;;;2.58;;
70667;SDS011;58242;51.250;-1.118;2023-03-09T09:04:20;3.10;;;2.70;;
70667;SDS011;58242;51.250;-1.118;2023-03-09T09:06:45;2.42;;;2.25;;
70667;SDS011;58242;51.250;-1.118;2023-03-09T09:09:11;3.50;;;2.45;;
70667;SDS011;58242;51.250;-1.118;2023-03-09T09:11:36;2.53;;;2.33;;
70667;SDS011;58242;51.250;-1.118;2023-03-09T09:14:01;2.45;;;2.25;;
70667;SDS011;58242;51.250;-1.118;2023-03-09T09:16:27;2.25;;;2.00;;
70667;SDS011;58242;51.250;-1.118;2023-03-09T09:18:54;2.53;;;2.33;;
70667;SDS011;58242;51.250;-1.118;2023-03-09T09:21:20;2.20;;;2.10;;
70667;SDS011;58242;51.250;-1.118;2023-03-09T09:23:45;2.03;;;1.92;;
70667;SDS011;58242;51.250;-1.118;2023-03-09T09:26:11;2.15;;;2.03;;
70667;SDS011;58242;51.250;-1.118;2023-03-09T09:28:38;2.53;;;2.20;;
70667;SDS011;58242;51.250;-1.118;2023-03-09T09:31:04;2.10;;;2.00;;
70667;SDS011;58242;51.250;-1.118;2023-03-09T09:33:30;1.80;;;1.70;;
70667;SDS011;58242;51.250;-1.118;2023-03-09T09:35:58;1.85;;;1.75;;
70667;SDS011;58242;51.250;-1.118;2023-03-09T09:38:27;2.10;;;2.00;;
70667;SDS011;58242;51.250;-1.118;2023-03-09T09:40:54;2.38;;;2.28;;
70667;SDS011;58242;51.250;-1.118;2023-03-09T09:43:22;2.10;;;2.00;;
70667;SDS011;58242;51.250;-1.118;2023-03-09T09:45:49;1.67;;;1.58;;
70667;SDS011;58242;51.250;-1.118;2023-03-09T09:48:17;1.95;;;1.85;;
70667;SDS011;58242;51.250;-1.118;2023-03-09T09:50:47;1.90;;;1.80;;
70667;SDS011;58242;51.250;-1.118;2023-03-09T09:53:34;1.90;;;1.80;;
70667;SDS011;58242;51.250;-1.118;2023-03-09T09:56:09;2.33;;;2.22;;
70667;SDS011;58242;51.250;-1.118;2023-03-09T10:01:09;1.80;;;1.70;;
70667;SDS011;58242;51.250;-1.118;2023-03-09T10:03:44;1.88;;;1.77;;
70667;SDS011;58242;51.250;-1.118;2023-03-09T10:06:22;1.85;;;1.75;;
70667;SDS011;58242;51.250;-1.118;2023-03-09T10:11:49;2.15;;;2.05;;
70667;SDS011;58242;51.250;-1.118;2023-03-09T10:14:31;2.47;;;2.28;;
70667;SDS011;58242;51.250;-1.118;2023-03-09T10:17:09;2.08;;;1.92;;
70667;SDS011;58242;51.250;-1.118;2023-03-09T10:19:41;1.90;;;1.80;;
70667;SDS011;58242;51.250;-1.118;2023-03-09T10:27:51;1.50;;;1.40;;
70667;SDS011;58242;51.250;-1.118;2023-03-09T10:32:55;2.20;;;1.98;;
70667;SDS011;58242;51.250;-1.118;2023-03-09T10:38:06;2.22;;;2.03;;
70667;SDS011;58242;51.250;-1.118;2023-03-09T10:40:40;3.35;;;2.20;;
70667;SDS011;58242;51.250;-1.118;2023-03-09T10:43:17;1.73;;;1.63;;
70667;SDS011;58242;51.250;-1.118;2023-03-09T10:45:47;2.38;;;1.90;;
70667;SDS011;58242;51.250;-1.118;2023-03-09T10:48:23;4.03;;;2.15;;
70667;SDS011;58242;51.250;-1.118;2023-03-09T10:51:00;2.72;;;2.25;;
70667;SDS011;58242;51.250;-1.118;2023-03-09T10:58:35;3.45;;;2.50;;
70667;SDS011;58242;51.250;-1.118;2023-03-09T11:01:01;2.72;;;2.50;;
70667;SDS011;58242;51.250;-1.118;2023-03-09T11:03:44;2.63;;;2.10;;
70667;SDS011;58242;51.250;-1.118;2023-03-09T11:08:41;4.15;;;2.95;;
70667;SDS011;58242;51.250;-1.118;2023-03-09T11:11:16;3.97;;;2.85;;
70667;SDS011;58242;51.250;-1.118;2023-03-09T11:13:45;4.95;;;2.85;;
70667;SDS011;58242;51.250;-1.118;2023-03-09T11:18:39;10.73;;;4.18;;
70667;SDS011;58242;51.250;-1.118;2023-03-09T11:21:05;6.38;;;3.13;;
70667;SDS011;58242;51.250;-1.118;2023-03-09T11:26:27;15.63;;;4.68;;
70667;SDS011;58242;51.250;-1.118;2023-03-09T11:31:59;10.90;;;4.90;;
70667;SDS011;58242;51.250;-1.118;2023-03-09T11:34:31;8.18;;;4.43;;
70667;SDS011;58242;51.250;-1.118;2023-03-09T11:37:00;10.15;;;4.22;;
70667;SDS011;58242;51.250;-1.118;2023-03-09T11:39:33;11.02;;;4.53;;
70667;SDS011;58242;51.250;-1.118;2023-03-09T11:42:03;9.95;;;4.75;;
70667;SDS011;58242;51.250;-1.118;2023-03-09T11:44:38;11.82;;;4.60;;
70667;SDS011;58242;51.250;-1.118;2023-03-09T11:47:08;17.58;;;5.85;;
70667;SDS011;58242;51.250;-1.118;2023-03-09T11:49:45;10.25;;;4.68;;
70667;SDS011;58242;51.250;-1.118;2023-03-09T11:52:22;11.23;;;4.07;;
70667;SDS011;58242;51.250;-1.118;2023-03-09T11:54:53;13.40;;;5.25;;
70667;SDS011;58242;51.250;-1.118;2023-03-09T11:57:23;9.65;;;4.22;;
70667;SDS011;58242;51.250;-1.118;2023-03-09T12:02:23;8.93;;;4.32;;
70667;SDS011;58242;51.250;-1.118;2023-03-09T12:04:54;17.40;;;6.05;;
70667;SDS011;58242;51.250;-1.118;2023-03-09T12:07:22;11.77;;;4.70;;
70667;SDS011;58242;51.250;-1.118;2023-03-09T12:12:22;10.48;;;4.65;;
70667;SDS011;58242;51.250;-1.118;2023-03-09T12:15:07;10.48;;;5.35;;
70667;SDS011;58242;51.250;-1.118;2023-03-09T12:17:48;15.27;;;5.60;;
70667;SDS011;58242;51.250;-1.118;2023-03-09T12:22:57;9.73;;;4.00;;
70667;SDS011;58242;51.250;-1.118;2023-03-09T12:25:22;13.77;;;4.20;;
70667;SDS011;58242;51.250;-1.118;2023-03-09T12:27:54;14.90;;;5.20;;
70667;SDS011;58242;51.250;-1.118;2023-03-09T12:32:48;15.32;;;5.55;;
70667;SDS011;58242;51.250;-1.118;2023-03-09T12:42:42;12.75;;;5.10;;
70667;SDS011;58242;51.250;-1.118;2023-03-09T12:47:37;10.40;;;4.28;;
70667;SDS011;58242;51.250;-1.118;2023-03-09T13:06:33;8.15;;;3.05;;
70667;SDS011;58242;51.250;-1.118;2023-03-09T13:09:15;4.90;;;3.00;;
70667;SDS011;58242;51.250;-1.118;2023-03-09T13:26:49;5.63;;;2.90;;
70667;SDS011;58242;51.250;-1.118;2023-03-09T13:29:19;6.00;;;2.92;;
70667;SDS011;58242;51.250;-1.118;2023-03-09T13:31:49;6.00;;;2.72;;
70667;SDS011;58242;51.250;-1.118;2023-03-09T13:34:16;3.08;;;2.53;;
70667;SDS011;58242;51.250;-1.118;2023-03-09T13:36:44;3.08;;;2.53;;
70667;SDS011;58242;51.250;-1.118;2023-03-09T13:39:15;4.82;;;2.85;;
70667;SDS011;58242;51.250;-1.118;2023-03-09T13:41:43;4.35;;;2.97;;
70667;SDS011;58242;51.250;-1.118;2023-03-09T13:44:13;2.80;;;2.60;;
70667;SDS011;58242;51.250;-1.118;2023-03-09T13:46:42;5.45;;;2.75;;
70667;SDS011;58242;51.250;-1.118;2023-03-09T13:49:18;3.65;;;2.78;;
70667;SDS011;58242;51.250;-1.118;2023-03-09T13:51:52;3.00;;;2.80;;
70667;SDS011;58242;51.250;-1.118;2023-03-09T14:02:22;7.75;;;3.47;;
70667;SDS011;58242;51.250;-1.118;2023-03-09T14:07:25;7.10;;;3.05;;
70667;SDS011;58242;51.250;-1.118;2023-03-09T14:09:55;13.65;;;3.55;;
70667;SDS011;58242;51.250;-1.118;2023-03-09T14:12:24;9.02;;;4.30;;
70667;SDS011;58242;51.250;-1.118;2023-03-09T14:14:53;3.45;;;2.67;;
70667;SDS011;58242;51.250;-1.118;2023-03-09T14:17:20;7.68;;;3.75;;
70667;SDS011;58242;51.250;-1.118;2023-03-09T14:19:49;7.50;;;3.50;;
70667;SDS011;58242;51.250;-1.118;2023-03-09T14:22:17;12.43;;;4.00;;
70667;SDS011;58242;51.250;-1.118;2023-03-09T14:24:44;5.95;;;2.97;;
70667;SDS011;58242;51.250;-1.118;2023-03-09T14:27:31;8.55;;;3.67;;
70667;SDS011;58242;51.250;-1.118;2023-03-09T14:29:56;9.65;;;4.03;;
70667;SDS011;58242;51.250;-1.118;2023-03-09T14:32:27;7.05;;;3.33;;
70667;SDS011;58242;51.250;-1.118;2023-03-09T14:34:55;6.72;;;3.00;;
70667;SDS011;58242;51.250;-1.118;2023-03-09T14:37:29;7.15;;;3.33;;
70667;SDS011;58242;51.250;-1.118;2023-03-09T14:39:56;9.43;;;3.90;;
70667;SDS011;58242;51.250;-1.118;2023-03-09T14:45:07;8.07;;;3.53;;
70667;SDS011;58242;51.250;-1.118;2023-03-09T14:47:45;5.38;;;3.45;;
70667;SDS011;58242;51.250;-1.118;2023-03-09T14:50:14;6.15;;;4.00;;
70667;SDS011;58242;51.250;-1.118;2023-03-09T14:52:41;5.93;;;3.38;;
70667;SDS011;58242;51.250;-1.118;2023-03-09T14:55:15;9.55;;;4.43;;
70667;SDS011;58242;51.250;-1.118;2023-03-09T14:57:42;7.57;;;3.80;;
70667;SDS011;58242;51.250;-1.118;2023-03-09T15:00:15;5.57;;;4.03;;
70667;SDS011;58242;51.250;-1.118;2023-03-09T15:02:41;7.32;;;3.78;;
70667;SDS011;58242;51.250;-1.118;2023-03-09T15:05:12;5.82;;;3.17;;
70667;SDS011;58242;51.250;-1.118;2023-03-09T15:07:38;4.13;;;3.13;;
70667;SDS011;58242;51.250;-1.118;2023-03-09T15:10:04;4.10;;;3.05;;
70667;SDS011;58242;51.250;-1.118;2023-03-09T15:12:29;5.30;;;3.05;;
70667;SDS011;58242;51.250;-1.118;2023-03-09T15:14:54;5.50;;;2.80;;
70667;SDS011;58242;51.250;-1.118;2023-03-09T15:17:21;3.35;;;2.58;;
70667;SDS011;58242;51.250;-1.118;2023-03-09T15:19:47;4.88;;;2.80;;
70667;SDS011;58242;51.250;-1.118;2023-03-09T15:22:13;2.95;;;2.20;;
70667;SDS011;58242;51.250;-1.118;2023-03-09T15:24:40;3.20;;;2.40;;
70667;SDS011;58242;51.250;-1.118;2023-03-09T15:27:06;3.33;;;2.30;;
70667;SDS011;58242;51.250;-1.118;2023-03-09T15:29:31;4.45;;;2.20;;
70667;SDS011;58242;51.250;-1.118;2023-03-09T15:31:57;2.53;;;2.33;;
70667;SDS011;58242;51.250;-1.118;2023-03-09T15:34:24;3.78;;;2.33;;
70667;SDS011;58242;51.250;-1.118;2023-03-09T15:36:49;5.20;;;2.55;;
70667;SDS011;58242;51.250;-1.118;2023-03-09T15:39:14;2.58;;;2.28;;
70667;SDS011;58242;51.250;-1.118;2023-03-09T15:41:40;3.40;;;2.75;;
70667;SDS011;58242;51.250;-1.118;2023-03-09T15:44:05;5.07;;;2.50;;
70667;SDS011;58242;51.250;-1.118;2023-03-09T15:46:30;3.88;;;2.80;;
70667;SDS011;58242;51.250;-1.118;2023-03-09T15:48:56;3.92;;;2.55;;
70667;SDS011;58242;51.250;-1.118;2023-03-09T15:51:21;5.70;;;2.90;;
70667;SDS011;58242;51.250;-1.118;2023-03-09T15:53:47;3.17;;;2.60;;
70667;SDS011;58242;51.250;-1.118;2023-03-09T15:56:13;4.63;;;2.55;;
70667;SDS011;58242;51.250;-1.118;2023-03-09T15:58:39;2.33;;;2.13;;
70667;SDS011;58242;51.250;-1.118;2023-03-09T16:01:06;6.28;;;2.50;;
70667;SDS011;58242;51.250;-1.118;2023-03-09T16:03:33;3.90;;;2.38;;
70667;SDS011;58242;51.250;-1.118;2023-03-09T16:05:59;5.45;;;2.10;;
70667;SDS011;58242;51.250;-1.118;2023-03-09T16:08:25;5.03;;;3.10;;
70667;SDS011;58242;51.250;-1.118;2023-03-09T16:10:51;3.45;;;2.47;;
70667;SDS011;58242;51.250;-1.118;2023-03-09T16:13:17;4.50;;;2.28;;
70667;SDS011;58242;51.250;-1.118;2023-03-09T16:18:11;3.45;;;3.15;;
70667;SDS011;58242;51.250;-1.118;2023-03-09T16:20:38;4.97;;;3.08;;
70667;SDS011;58242;51.250;-1.118;2023-03-09T16:23:04;2.75;;;2.00;;
70667;SDS011;58242;51.250;-1.118;2023-03-09T16:25:29;2.58;;;1.85;;